createdAt,value
2023-03-11T00:00:22.781Z,6.38
2023-03-11T00:02:51.378Z,6.82
2023-03-11T00:05:24.202Z,9.88
2023-03-11T00:07:51.448Z,6.97
2023-03-11T00:10:25.338Z,6.53
2023-03-11T00:12:51.841Z,8.80
2023-03-11T00:15:18.874Z,4.78
2023-03-11T00:17:47.003Z,7.65
2023-03-11T00:20:25.761Z,8.52
2023-03-11T00:22:52.784Z,8.13
2023-03-11T00:25:20.367Z,7.07
2023-03-11T00:27:46.854Z,7.93
2023-03-11T00:30:14.778Z,6.93
2023-03-11T00:32:41.489Z,7.43
2023-03-11T00:35:08.995Z,8.23
2023-03-11T00:37:35.437Z,5.65
2023-03-11T00:40:01.870Z,8.40
2023-03-11T00:42:28.703Z,6.97
2023-03-11T00:44:55.128Z,7.78
2023-03-11T00:47:21.775Z,5.28
2023-03-11T00:49:48.247Z,5.95
2023-03-11T00:52:15.111Z,5.20
2023-03-11T00:54:41.490Z,11.52
2023-03-11T00:57:08.248Z,11.80
2023-03-11T00:59:35.634Z,8.00
2023-03-11T01:02:02.034Z,7.25
2023-03-11T01:04:28.636Z,8.73
2023-03-11T01:06:55.069Z,6.85
2023-03-11T01:09:21.709Z,5.90
2023-03-11T01:11:48.183Z,12.05
2023-03-11T01:14:14.844Z,8.75
2023-03-11T01:16:41.246Z,6.05
2023-03-11T01:19:08.662Z,9.55
2023-03-11T01:21:35.145Z,8.35
2023-03-11T01:24:01.537Z,9.93
2023-03-11T01:26:27.981Z,8.85
2023-03-11T01:28:55.780Z,9.63
2023-03-11T01:31:22.271Z,9.27
2023-03-11T01:33:49.088Z,10.05
2023-03-11T01:36:15.523Z,11.63
2023-03-11T01:38:41.905Z,7.85
2023-03-11T01:41:11.146Z,7.28
2023-03-11T01:43:43.808Z,10.52
2023-03-11T01:46:13.592Z,11.32
2023-03-11T01:48:46.571Z,11.05
2023-03-11T01:51:13.564Z,9.25
2023-03-11T01:53:40.198Z,11.93
2023-03-11T01:56:07.112Z,8.82
2023-03-11T01:58:40.717Z,15.20
2023-03-11T02:01:07.657Z,14.20
2023-03-11T02:03:37.666Z,8.23
2023-03-11T02:06:08.156Z,11.25
2023-03-11T02:08:36.027Z,8.48
2023-03-11T02:11:08.128Z,8.85
2023-03-11T02:13:36.122Z,6.18
2023-03-11T02:16:04.189Z,9.52
2023-03-11T02:18:31.575Z,8.93
2023-03-11T02:25:34.549Z,8.18
2023-03-11T02:28:05.332Z,8.95
2023-03-11T02:30:34.485Z,6.85
2023-03-11T02:33:02.090Z,7.50
2023-03-11T02:35:28.805Z,8.73
2023-03-11T02:37:56.128Z,6.35
2023-03-11T02:40:23.221Z,9.60
2023-03-11T02:43:02.546Z,9.15
2023-03-11T02:45:30.630Z,10.40
2023-03-11T02:47:59.436Z,9.98
2023-03-11T02:50:28.479Z,10.65
2023-03-11T02:52:55.410Z,8.50
2023-03-11T02:55:22.967Z,10.07
2023-03-11T02:57:50.021Z,8.68
2023-03-11T03:00:17.704Z,8.50
2023-03-11T03:02:52.235Z,12.00
2023-03-11T03:05:20.762Z,8.70
2023-03-11T03:07:48.343Z,6.35
2023-03-11T03:10:16.182Z,9.43
2023-03-11T03:12:42.641Z,6.85
2023-03-11T03:15:11.017Z,6.88
2023-03-11T03:17:38.128Z,7.95
2023-03-11T03:20:11.246Z,7.43
2023-03-11T03:22:41.030Z,7.32
2023-03-11T03:25:10.618Z,8.63
2023-03-11T03:27:38.528Z,6.65
2023-03-11T03:30:08.159Z,8.80
2023-03-11T03:32:35.808Z,7.35
2023-03-11T03:35:03.853Z,6.57
2023-03-11T03:37:51.989Z,6.82
2023-03-11T03:40:21.207Z,7.93
2023-03-11T03:42:47.724Z,6.82
2023-03-11T03:45:14.755Z,7.00
2023-03-11T03:47:41.252Z,4.97
2023-03-11T03:50:10.216Z,12.73
2023-03-11T03:52:38.589Z,10.88
2023-03-11T03:55:05.726Z,8.18
2023-03-11T03:57:32.485Z,9.70
2023-03-11T03:59:59.072Z,9.82
2023-03-11T04:02:25.965Z,15.23
2023-03-11T04:04:53.892Z,8.35
2023-03-11T04:07:20.393Z,6.53
2023-03-11T04:09:47.127Z,4.70
2023-03-11T04:12:15.412Z,8.00
2023-03-11T04:14:42.097Z,7.70
2023-03-11T04:17:11.916Z,5.00
2023-03-11T04:19:39.225Z,11.43
2023-03-11T04:22:05.969Z,12.25
2023-03-11T04:24:33.134Z,7.25
2023-03-11T04:26:59.711Z,9.05
2023-03-11T04:29:26.180Z,6.90
2023-03-11T04:31:53.768Z,5.95
2023-03-11T04:34:20.797Z,5.80
2023-03-11T04:36:47.377Z,6.47
2023-03-11T04:39:16.035Z,6.63
2023-03-11T04:41:44.167Z,7.75
2023-03-11T04:44:15.442Z,7.20
2023-03-11T04:46:42.090Z,6.20
2023-03-11T04:49:10.292Z,7.70
2023-03-11T04:51:37.297Z,9.23
2023-03-11T04:54:04.853Z,10.20
2023-03-11T04:56:31.319Z,11.35
2023-03-11T04:58:59.342Z,4.72
2023-03-11T05:01:27.645Z,4.55
2023-03-11T05:03:55.632Z,10.85
2023-03-11T05:06:22.048Z,7.38
2023-03-11T05:08:48.668Z,6.28
2023-03-11T05:11:15.292Z,6.32
2023-03-11T05:13:44.189Z,8.82
2023-03-11T05:16:11.337Z,14.02
2023-03-11T05:18:38.067Z,7.47
2023-03-11T05:21:05.219Z,6.50
2023-03-11T05:23:33.474Z,9.18
2023-03-11T05:26:01.070Z,8.60
2023-03-11T05:28:29.236Z,7.97
2023-03-11T05:30:55.845Z,10.57
2023-03-11T05:33:22.865Z,6.03
2023-03-11T05:35:51.828Z,5.60
2023-03-11T05:38:19.332Z,5.80
2023-03-11T05:40:45.843Z,6.97
2023-03-11T05:43:12.444Z,8.23
2023-03-11T05:45:41.534Z,8.85
2023-03-11T05:48:08.096Z,7.53
2023-03-11T05:50:37.627Z,7.70
2023-03-11T05:53:04.062Z,8.30
2023-03-11T05:55:31.277Z,7.88
2023-03-11T05:57:57.754Z,6.85
2023-03-11T06:00:24.234Z,9.90
2023-03-11T06:02:52.713Z,9.13
2023-03-11T06:05:19.820Z,10.98
2023-03-11T06:07:48.387Z,8.40
2023-03-11T06:10:14.989Z,7.82
2023-03-11T06:12:41.939Z,5.53
2023-03-11T06:15:30.140Z,12.35
2023-03-11T06:17:56.777Z,8.25
2023-03-11T06:20:24.955Z,9.30
2023-03-11T06:22:52.455Z,5.88
2023-03-11T06:25:22.540Z,7.63
2023-03-11T06:27:53.625Z,5.63
2023-03-11T06:30:22.184Z,7.82
2023-03-11T06:32:56.113Z,6.53
2023-03-11T06:35:22.806Z,6.45
2023-03-11T06:37:49.248Z,5.43
2023-03-11T06:40:16.030Z,8.13
2023-03-11T06:42:42.626Z,7.13
2023-03-11T06:45:11.019Z,8.27
2023-03-11T06:47:38.259Z,10.15
2023-03-11T06:50:07.283Z,6.95
2023-03-11T06:52:33.741Z,6.45
2023-03-11T06:55:00.244Z,9.45
2023-03-11T06:57:27.827Z,8.95
2023-03-11T06:59:56.289Z,5.45
2023-03-11T07:02:22.688Z,8.10
2023-03-11T07:04:49.869Z,7.20
2023-03-11T07:07:18.475Z,7.35
2023-03-11T07:09:44.948Z,10.88
2023-03-11T07:12:14.826Z,6.97
2023-03-11T07:14:41.520Z,5.55
2023-03-11T07:17:08.005Z,6.88
2023-03-11T07:19:44.091Z,9.77
2023-03-11T07:22:10.469Z,10.25
2023-03-11T07:24:37.165Z,6.15
2023-03-11T07:27:03.734Z,11.73
2023-03-11T07:29:30.151Z,8.40
2023-03-11T07:31:56.590Z,12.90
2023-03-11T07:34:23.068Z,8.05
2023-03-11T07:36:49.563Z,11.75
2023-03-11T07:39:18.887Z,9.63
2023-03-11T07:41:45.862Z,8.38
2023-03-11T07:44:13.729Z,7.75
2023-03-11T07:46:40.951Z,7.45
2023-03-11T07:49:07.926Z,9.98
2023-03-11T07:51:37.102Z,6.88
2023-03-11T07:54:04.655Z,8.27
2023-03-11T07:56:34.826Z,7.10
2023-03-11T07:59:03.008Z,6.35
2023-03-11T08:01:35.958Z,6.53
2023-03-11T08:04:05.161Z,9.27
2023-03-11T08:06:33.346Z,10.20
2023-03-11T08:09:01.243Z,8.25
2023-03-11T08:11:28.321Z,7.20
2023-03-11T08:13:55.076Z,8.30
2023-03-11T08:16:22.371Z,11.95
2023-03-11T08:18:50.441Z,5.10
2023-03-11T08:21:20.009Z,10.20
2023-03-11T08:23:46.396Z,5.30
2023-03-11T08:26:18.071Z,13.77
2023-03-11T08:28:44.961Z,6.15
2023-03-11T08:31:16.267Z,4.55
2023-03-11T08:33:44.707Z,5.05
2023-03-11T08:36:11.873Z,6.55
2023-03-11T08:38:38.963Z,5.85
2023-03-11T08:41:05.614Z,4.97
2023-03-11T08:43:32.417Z,7.35
2023-03-11T08:46:03.386Z,9.50
2023-03-11T08:48:30.103Z,4.95
2023-03-11T08:50:56.527Z,6.82
2023-03-11T08:53:23.056Z,8.50
2023-03-11T08:55:51.339Z,11.98
2023-03-11T08:58:19.117Z,7.90
2023-03-11T09:00:46.178Z,6.43
2023-03-11T09:03:13.445Z,6.10
2023-03-11T09:05:39.983Z,4.95
2023-03-11T09:08:06.375Z,4.13
2023-03-11T09:10:33.300Z,7.78
2023-03-11T09:12:59.690Z,5.55
2023-03-11T09:15:26.666Z,5.45
2023-03-11T09:17:53.851Z,4.40
2023-03-11T09:20:20.423Z,8.70
2023-03-11T09:22:47.177Z,6.65
2023-03-11T09:25:14.518Z,4.30
2023-03-11T09:27:41.316Z,6.75
2023-03-11T09:30:09.901Z,5.32
2023-03-11T09:32:37.115Z,6.07
2023-03-11T09:35:04.036Z,2.72
2023-03-11T09:37:30.810Z,2.90
2023-03-11T09:39:57.247Z,6.38
2023-03-11T09:42:42.695Z,2.90
2023-03-11T09:45:16.723Z,3.17
2023-03-11T09:47:55.550Z,6.45
2023-03-11T09:50:32.303Z,3.78
2023-03-11T09:53:23.543Z,3.20
2023-03-11T09:55:58.530Z,5.70
2023-03-11T09:58:24.866Z,7.75
2023-03-11T10:00:52.138Z,5.63
2023-03-11T10:03:32.540Z,4.18
2023-03-11T10:06:11.751Z,4.97
2023-03-11T10:08:52.201Z,6.30
2023-03-11T10:11:33.593Z,6.53
2023-03-11T10:14:09.053Z,5.05
2023-03-11T10:16:50.110Z,3.83
2023-03-11T10:19:25.623Z,2.55
2023-03-11T10:22:26.831Z,3.63
2023-03-11T10:25:03.091Z,7.03
2023-03-11T10:27:35.027Z,3.55
2023-03-11T10:30:23.074Z,7.15
2023-03-11T10:33:17.259Z,6.50
2023-03-11T10:35:48.076Z,4.82
2023-03-11T10:38:48.105Z,4.50
2023-03-11T10:41:42.136Z,5.40
2023-03-11T10:44:16.659Z,4.38
2023-03-11T10:46:43.052Z,5.80
2023-03-11T10:49:15.372Z,8.35
2023-03-11T10:51:46.020Z,7.57
2023-03-11T10:54:28.205Z,5.13
2023-03-11T10:56:58.120Z,6.82
2023-03-11T10:59:27.302Z,3.30
2023-03-11T11:02:27.886Z,5.30
2023-03-11T11:05:16.038Z,3.83
2023-03-11T11:07:43.839Z,5.85
2023-03-11T11:10:23.586Z,5.70
2023-03-11T11:13:08.293Z,7.65
2023-03-11T11:15:37.372Z,5.53
2023-03-11T11:18:07.240Z,5.47
2023-03-11T11:20:34.317Z,3.67
2023-03-11T11:23:03.553Z,3.40
2023-03-11T11:25:34.846Z,9.25
2023-03-11T11:28:14.518Z,5.78
2023-03-11T11:31:05.223Z,4.70
2023-03-11T11:33:38.522Z,4.43
2023-03-11T11:36:06.890Z,3.47
2023-03-11T11:38:34.114Z,6.20
2023-03-11T11:41:04.769Z,5.43
2023-03-11T11:43:46.249Z,4.88
2023-03-11T11:46:21.372Z,3.30
2023-03-11T11:48:57.742Z,4.32
2023-03-11T11:51:35.120Z,4.63
2023-03-11T11:54:15.241Z,3.60
2023-03-11T11:56:41.934Z,3.72
2023-03-11T11:59:17.810Z,4.35
2023-03-11T12:02:08.572Z,5.38
2023-03-11T12:04:49.942Z,4.15
2023-03-11T12:07:22.040Z,3.33
2023-03-11T12:09:58.285Z,3.67
2023-03-11T12:13:12.559Z,3.90
2023-03-11T12:15:44.039Z,7.47
2023-03-11T12:18:19.424Z,3.47
2023-03-11T12:20:52.116Z,4.63
2023-03-11T12:23:24.614Z,4.88
2023-03-11T12:26:00.175Z,7.00
2023-03-11T12:28:39.602Z,7.47
2023-03-11T12:31:10.386Z,6.13
2023-03-11T12:33:38.696Z,3.45
2023-03-11T12:36:07.034Z,4.50
2023-03-11T12:38:40.155Z,3.97
2023-03-11T12:41:26.285Z,5.43
2023-03-11T12:43:52.631Z,2.67
2023-03-11T12:46:19.529Z,5.63
2023-03-11T12:48:50.322Z,4.60
2023-03-11T12:51:34.050Z,3.78
2023-03-11T12:57:14.462Z,6.28
2023-03-11T13:00:18.286Z,4.93
2023-03-11T13:03:13.839Z,5.55
2023-03-11T13:06:16.636Z,7.13
2023-03-11T13:08:49.755Z,4.60
2023-03-11T13:11:31.389Z,6.38
2023-03-11T13:14:29.371Z,6.15
2023-03-11T13:16:57.828Z,5.82
2023-03-11T13:19:26.984Z,4.78
2023-03-11T13:21:54.728Z,3.10
2023-03-11T13:24:22.022Z,4.38
2023-03-11T13:26:56.971Z,3.17
2023-03-11T13:29:26.341Z,2.80
2023-03-11T13:32:30.547Z,3.38
2023-03-11T13:35:00.051Z,5.13
2023-03-11T13:38:05.652Z,4.30
2023-03-11T13:40:39.411Z,3.58
2023-03-11T13:43:24.969Z,2.70
2023-03-11T13:46:09.979Z,5.15
2023-03-11T13:48:42.076Z,2.55
2023-03-11T13:51:16.859Z,3.17
2023-03-11T13:54:02.417Z,3.92
2023-03-11T13:56:44.343Z,4.13
2023-03-11T13:59:28.486Z,3.42
2023-03-11T14:02:17.148Z,3.67
2023-03-11T14:05:06.869Z,5.85
2023-03-11T14:07:35.294Z,4.00
2023-03-11T14:10:20.710Z,5.50
2023-03-11T14:12:48.314Z,2.28
2023-03-11T14:15:20.450Z,5.95
2023-03-11T14:17:48.766Z,7.00
2023-03-11T14:20:18.176Z,2.80
2023-03-11T14:22:51.002Z,2.72
2023-03-11T14:25:21.932Z,3.97
2023-03-11T14:27:53.900Z,4.78
2023-03-11T14:30:26.342Z,3.90
2023-03-11T14:33:06.322Z,4.50
2023-03-11T14:35:34.248Z,4.75
2023-03-11T14:38:01.327Z,2.22
2023-03-11T14:40:31.473Z,3.38
2023-03-11T14:43:01.960Z,4.00
2023-03-11T14:45:32.614Z,2.85
2023-03-11T14:48:15.016Z,3.63
2023-03-11T14:50:44.660Z,3.35
2023-03-11T14:53:19.424Z,3.45
2023-03-11T14:55:57.999Z,3.90
2023-03-11T14:58:39.888Z,3.10
2023-03-11T15:01:15.461Z,3.03
2023-03-11T15:03:50.409Z,2.95
2023-03-11T15:06:20.118Z,4.40
2023-03-11T15:08:50.398Z,3.60
2023-03-11T15:11:16.687Z,7.05
2023-03-11T15:13:47.217Z,4.47
2023-03-11T15:16:31.156Z,4.97
2023-03-11T15:19:20.226Z,3.28
2023-03-11T15:21:48.172Z,3.60
2023-03-11T15:24:25.879Z,4.65
2023-03-11T15:26:56.757Z,5.18
2023-03-11T15:29:25.069Z,3.30
2023-03-11T15:31:51.574Z,2.78
2023-03-11T15:34:17.908Z,4.55
2023-03-11T15:36:47.440Z,3.28
2023-03-11T15:39:32.008Z,2.80
2023-03-11T15:42:01.089Z,6.93
2023-03-11T15:44:33.288Z,5.40
2023-03-11T15:47:00.711Z,3.42
2023-03-11T15:49:28.537Z,6.30
2023-03-11T15:52:02.048Z,4.47
2023-03-11T15:54:28.959Z,3.42
2023-03-11T15:56:58.444Z,3.88
2023-03-11T15:59:25.533Z,5.35
2023-03-11T16:01:51.918Z,3.20
2023-03-11T16:04:20.578Z,4.75
2023-03-11T16:06:59.471Z,2.08
2023-03-11T16:09:34.157Z,3.53
2023-03-11T16:12:01.807Z,3.58
2023-03-11T16:14:28.209Z,3.13
2023-03-11T16:16:54.607Z,4.60
2023-03-11T16:19:20.993Z,5.60
2023-03-11T16:21:50.155Z,2.40
2023-03-11T16:24:21.215Z,3.40
2023-03-11T16:26:48.024Z,3.65
2023-03-11T16:29:19.484Z,3.47
2023-03-11T16:31:46.433Z,3.80
2023-03-11T16:34:12.827Z,4.32
2023-03-11T16:36:39.209Z,2.58
2023-03-11T16:39:05.758Z,3.83
2023-03-11T16:41:43.834Z,2.50
2023-03-11T16:44:10.438Z,3.38
2023-03-11T16:46:37.456Z,6.05
2023-03-11T16:49:05.095Z,2.65
2023-03-11T16:51:31.555Z,3.75
2023-03-11T16:53:57.947Z,4.07
2023-03-11T16:56:24.631Z,3.35
2023-03-11T16:58:51.348Z,8.80
2023-03-11T17:01:19.067Z,4.35
2023-03-11T17:03:48.509Z,5.30
2023-03-11T17:06:16.947Z,5.85
2023-03-11T17:08:48.747Z,5.57
2023-03-11T17:11:20.589Z,4.88
2023-03-11T17:13:46.982Z,2.97
2023-03-11T17:16:13.663Z,5.60
2023-03-11T17:18:40.112Z,4.82
2023-03-11T17:21:12.114Z,6.72
2023-03-11T17:23:38.834Z,7.57
2023-03-11T17:26:09.910Z,5.63
2023-03-11T17:28:37.007Z,4.95
2023-03-11T17:31:03.619Z,3.72
2023-03-11T17:33:30.166Z,4.65
2023-03-11T17:36:01.645Z,5.53
2023-03-11T17:38:29.319Z,3.65
2023-03-11T17:40:56.430Z,4.93
2023-03-11T17:43:23.401Z,5.88
2023-03-11T17:45:50.122Z,7.65
2023-03-11T17:48:16.808Z,4.97
2023-03-11T17:50:43.396Z,12.45
2023-03-11T17:53:09.792Z,7.05
2023-03-11T17:55:39.546Z,4.25
2023-03-11T17:58:06.141Z,8.40
2023-03-11T18:00:32.760Z,6.20
2023-03-11T18:02:59.171Z,5.28
2023-03-11T18:05:25.660Z,6.68
2023-03-11T18:07:52.216Z,6.95
2023-03-11T18:10:20.021Z,6.28
2023-03-11T18:12:47.446Z,6.15
2023-03-11T18:15:18.797Z,7.05
2023-03-11T18:17:48.741Z,6.45
2023-03-11T18:20:16.383Z,6.78
2023-03-11T18:22:46.779Z,5.63
2023-03-11T18:25:13.823Z,6.90
2023-03-11T18:27:41.119Z,8.43
2023-03-11T18:30:10.525Z,7.25
2023-03-11T18:32:37.378Z,10.80
2023-03-11T18:35:04.791Z,5.97
2023-03-11T18:37:32.688Z,8.98
2023-03-11T18:39:59.529Z,8.18
2023-03-11T18:42:25.972Z,8.75
2023-03-11T18:44:52.358Z,7.13
2023-03-11T18:47:18.761Z,10.25
2023-03-11T18:49:46.316Z,10.60
2023-03-11T18:52:13.025Z,8.68
2023-03-11T18:54:39.627Z,9.32
2023-03-11T18:57:06.098Z,9.07
2023-03-11T18:59:32.740Z,9.75
2023-03-11T19:01:59.177Z,11.93
2023-03-11T19:04:25.611Z,11.43
2023-03-11T19:06:52.285Z,13.50
2023-03-11T19:09:18.728Z,15.63
2023-03-11T19:11:46.228Z,10.55
2023-03-11T19:14:12.879Z,15.45
2023-03-11T19:16:39.314Z,20.45
2023-03-11T19:19:05.689Z,21.40
2023-03-11T19:21:32.060Z,25.15
2023-03-11T19:23:59.848Z,27.25
2023-03-11T19:26:43.207Z,28.83
2023-03-11T19:29:10.706Z,31.60
2023-03-11T19:31:37.454Z,30.00
2023-03-11T19:34:03.908Z,35.10
2023-03-11T19:36:30.300Z,30.02
2023-03-11T19:38:56.695Z,34.17
2023-03-11T19:41:23.181Z,37.60
2023-03-11T19:43:49.715Z,38.17
2023-03-11T19:46:18.896Z,31.92
2023-03-11T19:48:45.319Z,31.02
2023-03-11T19:51:12.047Z,30.30
2023-03-11T19:53:40.390Z,30.23
2023-03-11T19:56:07.382Z,30.33
2023-03-11T19:58:33.939Z,26.27
2023-03-11T20:01:02.010Z,25.75
2023-03-11T20:03:29.072Z,22.52
2023-03-11T20:05:57.760Z,27.45
2023-03-11T20:08:25.306Z,22.90
2023-03-11T20:10:53.180Z,20.60
2023-03-11T20:13:21.700Z,20.70
2023-03-11T20:15:48.665Z,18.85
2023-03-11T20:18:15.440Z,20.15
2023-03-11T20:20:43.133Z,20.00
2023-03-11T20:23:10.352Z,20.60
2023-03-11T20:25:40.921Z,19.90
2023-03-11T20:28:07.493Z,14.40
2023-03-11T20:30:34.657Z,17.45
2023-03-11T20:33:01.345Z,16.52
2023-03-11T20:35:27.772Z,17.83
2023-03-11T20:37:54.324Z,22.27
2023-03-11T20:40:21.204Z,17.90
2023-03-11T20:42:47.904Z,16.25
2023-03-11T20:45:17.392Z,16.95
2023-03-11T20:47:44.321Z,16.08
2023-03-11T20:50:12.501Z,19.23
2023-03-11T20:52:39.073Z,19.58
2023-03-11T20:55:08.199Z,16.63
2023-03-11T20:57:35.099Z,20.30
2023-03-11T21:00:01.721Z,21.63
2023-03-11T21:02:30.829Z,20.73
2023-03-11T21:04:57.485Z,19.48
2023-03-11T21:07:24.006Z,17.92
2023-03-11T21:09:54.368Z,16.20
2023-03-11T21:12:21.841Z,19.63
2023-03-11T21:14:48.446Z,16.38
2023-03-11T21:17:15.349Z,15.50
2023-03-11T21:19:42.043Z,14.95
2023-03-11T21:22:08.475Z,15.00
2023-03-11T21:24:34.872Z,16.75
2023-03-11T21:27:01.345Z,15.90
2023-03-11T21:29:28.661Z,21.27
2023-03-11T21:31:55.172Z,20.25
2023-03-11T21:34:21.726Z,21.88
2023-03-11T21:36:48.329Z,23.85
2023-03-11T21:39:15.190Z,23.50
2023-03-11T21:41:41.762Z,23.58
2023-03-11T21:44:08.340Z,22.08
2023-03-11T21:46:34.937Z,23.13
2023-03-11T21:49:01.691Z,26.15
2023-03-11T21:51:29.219Z,24.73
2023-03-11T21:53:56.284Z,23.30
2023-03-11T21:56:22.739Z,21.25
2023-03-11T21:58:50.028Z,24.50
2023-03-11T22:01:16.716Z,24.90
2023-03-11T22:03:43.777Z,26.05
2023-03-11T22:06:12.324Z,20.58
2023-03-11T22:08:39.526Z,21.52
2023-03-11T22:11:13.752Z,23.67
2023-03-11T22:13:40.355Z,25.40
2023-03-11T22:16:07.535Z,20.33
2023-03-11T22:18:34.353Z,24.05
2023-03-11T22:21:01.373Z,21.15
2023-03-11T22:23:28.211Z,26.20
2023-03-11T22:25:55.057Z,23.67
2023-03-11T22:28:22.173Z,21.58
2023-03-11T22:30:48.583Z,19.15
2023-03-11T22:33:15.008Z,20.80
2023-03-11T22:35:49.448Z,22.92
2023-03-11T22:38:15.901Z,19.38
2023-03-11T22:40:42.267Z,21.40
2023-03-11T22:43:09.268Z,26.25
2023-03-11T22:45:35.691Z,21.50
2023-03-11T22:48:02.109Z,25.50
2023-03-11T22:50:28.487Z,24.40
2023-03-11T22:52:55.122Z,24.40
2023-03-11T22:55:21.553Z,22.33
2023-03-11T22:57:47.979Z,23.63
2023-03-11T23:00:17.776Z,22.60
2023-03-11T23:02:48.649Z,21.33
2023-03-11T23:05:15.942Z,21.88
2023-03-11T23:07:42.931Z,23.38
2023-03-11T23:10:11.145Z,25.17
2023-03-11T23:12:38.641Z,18.42
2023-03-11T23:15:08.752Z,19.33
2023-03-11T23:17:35.526Z,23.23
2023-03-11T23:20:04.721Z,18.25
2023-03-11T23:22:34.327Z,16.67
2023-03-11T23:25:02.164Z,16.45
2023-03-11T23:27:29.031Z,13.52
2023-03-11T23:29:55.547Z,16.13
2023-03-11T23:32:21.917Z,11.95
2023-03-11T23:34:48.379Z,14.50
2023-03-11T23:37:14.834Z,13.00
2023-03-11T23:39:41.347Z,11.70
2023-03-11T23:42:22.599Z,14.88
2023-03-11T23:44:51.812Z,13.20
2023-03-11T23:47:18.273Z,13.05
2023-03-11T23:49:44.656Z,17.10
2023-03-11T23:52:11.101Z,16.73
2023-03-11T23:54:37.495Z,17.38
2023-03-11T23:57:03.874Z,13.82
2023-03-11T23:59:30.409Z,13.07
